sensor_id;sensor_type;location;lat;lon;timestamp;P1;durP1;ratioP1;P2;durP2;ratioP2
17488;SDS011;8861;52.644;4.734;2022-12-20T00:00:45;12.37;;;8.23;;
17488;SDS011;8861;52.644;4.734;2022-12-20T00:03:12;14.70;;;9.03;;
17488;SDS011;8861;52.644;4.734;2022-12-20T00:05:40;10.90;;;8.10;;
17488;SDS011;8861;52.644;4.734;2022-12-20T00:08:08;12.20;;;8.13;;
17488;SDS011;8861;52.644;4.734;2022-12-20T00:10:36;11.57;;;7.77;;
17488;SDS011;8861;52.644;4.734;2022-12-20T00:13:05;13.67;;;8.57;;
17488;SDS011;8861;52.644;4.734;2022-12-20T00:15:32;17.13;;;8.97;;
17488;SDS011;8861;52.644;4.734;2022-12-20T00:18:00;11.57;;;7.83;;
17488;SDS011;8861;52.644;4.734;2022-12-20T00:20:27;8.67;;;7.03;;
17488;SDS011;8861;52.644;4.734;2022-12-20T00:22:55;12.47;;;7.87;;
17488;SDS011;8861;52.644;4.734;2022-12-20T00:25:22;11.17;;;7.97;;
17488;SDS011;8861;52.644;4.734;2022-12-20T00:27:50;16.80;;;8.87;;
17488;SDS011;8861;52.644;4.734;2022-12-20T00:30:17;11.03;;;7.80;;
17488;SDS011;8861;52.644;4.734;2022-12-20T00:32:45;10.90;;;7.70;;
17488;SDS011;8861;52.644;4.734;2022-12-20T00:35:11;16.37;;;8.97;;
17488;SDS011;8861;52.644;4.734;2022-12-20T00:37:38;12.10;;;8.57;;
17488;SDS011;8861;52.644;4.734;2022-12-20T00:40:06;13.97;;;9.30;;
17488;SDS011;8861;52.644;4.734;2022-12-20T00:42:34;11.23;;;8.43;;
17488;SDS011;8861;52.644;4.734;2022-12-20T00:45:02;11.70;;;7.97;;
17488;SDS011;8861;52.644;4.734;2022-12-20T00:47:29;12.10;;;8.30;;
17488;SDS011;8861;52.644;4.734;2022-12-20T00:49:57;12.13;;;8.43;;
17488;SDS011;8861;52.644;4.734;2022-12-20T00:52:24;12.10;;;8.00;;
17488;SDS011;8861;52.644;4.734;2022-12-20T00:54:51;18.03;;;9.70;;
17488;SDS011;8861;52.644;4.734;2022-12-20T00:57:24;12.80;;;8.83;;
17488;SDS011;8861;52.644;4.734;2022-12-20T00:59:50;15.27;;;9.73;;
17488;SDS011;8861;52.644;4.734;2022-12-20T01:02:19;13.83;;;9.03;;
17488;SDS011;8861;52.644;4.734;2022-12-20T01:04:47;14.77;;;9.33;;
17488;SDS011;8861;52.644;4.734;2022-12-20T01:07:14;15.70;;;9.60;;
17488;SDS011;8861;52.644;4.734;2022-12-20T01:09:41;14.47;;;9.50;;
17488;SDS011;8861;52.644;4.734;2022-12-20T01:12:08;11.70;;;8.80;;
17488;SDS011;8861;52.644;4.734;2022-12-20T01:14:35;14.90;;;9.67;;
17488;SDS011;8861;52.644;4.734;2022-12-20T01:17:02;13.53;;;10.17;;
17488;SDS011;8861;52.644;4.734;2022-12-20T01:19:30;13.57;;;9.93;;
17488;SDS011;8861;52.644;4.734;2022-12-20T01:21:57;16.83;;;10.70;;
17488;SDS011;8861;52.644;4.734;2022-12-20T01:24:24;15.63;;;10.23;;
17488;SDS011;8861;52.644;4.734;2022-12-20T01:26:51;14.50;;;8.93;;
17488;SDS011;8861;52.644;4.734;2022-12-20T01:29:18;19.00;;;10.27;;
17488;SDS011;8861;52.644;4.734;2022-12-20T01:31:45;16.40;;;9.70;;
17488;SDS011;8861;52.644;4.734;2022-12-20T01:34:12;15.43;;;10.47;;
17488;SDS011;8861;52.644;4.734;2022-12-20T01:36:41;17.53;;;10.13;;
17488;SDS011;8861;52.644;4.734;2022-12-20T01:39:11;16.50;;;9.60;;
17488;SDS011;8861;52.644;4.734;2022-12-20T01:41:42;16.03;;;11.10;;
17488;SDS011;8861;52.644;4.734;2022-12-20T01:47:28;13.97;;;9.93;;
17488;SDS011;8861;52.644;4.734;2022-12-20T01:49:57;13.77;;;9.57;;
17488;SDS011;8861;52.644;4.734;2022-12-20T01:52:29;16.67;;;10.67;;
17488;SDS011;8861;52.644;4.734;2022-12-20T01:55:03;19.33;;;11.83;;
17488;SDS011;8861;52.644;4.734;2022-12-20T01:57:35;15.43;;;10.33;;
17488;SDS011;8861;52.644;4.734;2022-12-20T02:00:07;13.33;;;10.57;;
17488;SDS011;8861;52.644;4.734;2022-12-20T02:02:36;16.23;;;11.10;;
17488;SDS011;8861;52.644;4.734;2022-12-20T02:05:03;17.30;;;10.33;;
17488;SDS011;8861;52.644;4.734;2022-12-20T02:07:33;17.67;;;11.73;;
17488;SDS011;8861;52.644;4.734;2022-12-20T02:10:02;20.67;;;11.20;;
17488;SDS011;8861;52.644;4.734;2022-12-20T02:12:33;14.17;;;10.00;;
17488;SDS011;8861;52.644;4.734;2022-12-20T02:15:13;20.23;;;12.23;;
17488;SDS011;8861;52.644;4.734;2022-12-20T02:17:58;15.93;;;10.13;;
17488;SDS011;8861;52.644;4.734;2022-12-20T02:20:46;16.20;;;11.27;;
17488;SDS011;8861;52.644;4.734;2022-12-20T02:30:09;18.43;;;11.53;;
17488;SDS011;8861;52.644;4.734;2022-12-20T02:32:41;18.40;;;11.87;;
17488;SDS011;8861;52.644;4.734;2022-12-20T02:35:22;17.23;;;12.37;;
17488;SDS011;8861;52.644;4.734;2022-12-20T02:37:51;18.73;;;12.63;;
17488;SDS011;8861;52.644;4.734;2022-12-20T02:40:21;17.03;;;12.00;;
17488;SDS011;8861;52.644;4.734;2022-12-20T02:42:50;21.03;;;13.10;;
17488;SDS011;8861;52.644;4.734;2022-12-20T02:45:21;18.97;;;12.50;;
17488;SDS011;8861;52.644;4.734;2022-12-20T02:47:52;20.43;;;13.87;;
17488;SDS011;8861;52.644;4.734;2022-12-20T02:50:25;21.03;;;12.60;;
17488;SDS011;8861;52.644;4.734;2022-12-20T02:52:56;17.57;;;11.70;;
17488;SDS011;8861;52.644;4.734;2022-12-20T02:55:30;16.77;;;11.53;;
17488;SDS011;8861;52.644;4.734;2022-12-20T02:58:05;21.33;;;13.63;;
17488;SDS011;8861;52.644;4.734;2022-12-20T03:00:41;15.90;;;12.13;;
17488;SDS011;8861;52.644;4.734;2022-12-20T03:03:11;21.90;;;14.03;;
17488;SDS011;8861;52.644;4.734;2022-12-20T03:05:49;17.67;;;12.30;;
17488;SDS011;8861;52.644;4.734;2022-12-20T03:08:18;16.73;;;11.63;;
17488;SDS011;8861;52.644;4.734;2022-12-20T03:10:46;19.77;;;12.37;;
17488;SDS011;8861;52.644;4.734;2022-12-20T03:13:13;22.10;;;14.07;;
17488;SDS011;8861;52.644;4.734;2022-12-20T03:15:41;21.30;;;13.33;;
17488;SDS011;8861;52.644;4.734;2022-12-20T03:18:08;16.63;;;12.30;;
17488;SDS011;8861;52.644;4.734;2022-12-20T03:20:35;20.03;;;13.53;;
17488;SDS011;8861;52.644;4.734;2022-12-20T03:23:02;21.67;;;13.87;;
17488;SDS011;8861;52.644;4.734;2022-12-20T03:25:29;19.80;;;14.03;;
17488;SDS011;8861;52.644;4.734;2022-12-20T03:27:56;18.90;;;13.60;;
17488;SDS011;8861;52.644;4.734;2022-12-20T03:30:23;17.53;;;12.77;;
17488;SDS011;8861;52.644;4.734;2022-12-20T03:32:52;20.90;;;14.30;;
17488;SDS011;8861;52.644;4.734;2022-12-20T03:35:19;16.73;;;12.50;;
17488;SDS011;8861;52.644;4.734;2022-12-20T03:37:46;18.00;;;12.13;;
17488;SDS011;8861;52.644;4.734;2022-12-20T03:40:13;18.83;;;13.30;;
17488;SDS011;8861;52.644;4.734;2022-12-20T03:42:40;17.10;;;13.13;;
17488;SDS011;8861;52.644;4.734;2022-12-20T03:45:08;15.53;;;12.03;;
17488;SDS011;8861;52.644;4.734;2022-12-20T03:47:41;17.20;;;12.60;;
17488;SDS011;8861;52.644;4.734;2022-12-20T03:50:18;17.60;;;13.27;;
17488;SDS011;8861;52.644;4.734;2022-12-20T03:52:45;18.97;;;12.47;;
17488;SDS011;8861;52.644;4.734;2022-12-20T03:55:12;17.97;;;11.87;;
17488;SDS011;8861;52.644;4.734;2022-12-20T03:57:39;16.60;;;11.70;;
17488;SDS011;8861;52.644;4.734;2022-12-20T04:00:06;16.40;;;11.73;;
17488;SDS011;8861;52.644;4.734;2022-12-20T04:02:36;16.27;;;10.93;;
17488;SDS011;8861;52.644;4.734;2022-12-20T04:05:03;16.83;;;11.97;;
17488;SDS011;8861;52.644;4.734;2022-12-20T04:07:32;16.77;;;11.50;;
17488;SDS011;8861;52.644;4.734;2022-12-20T04:09:59;16.63;;;11.60;;
17488;SDS011;8861;52.644;4.734;2022-12-20T04:12:26;15.03;;;11.43;;
17488;SDS011;8861;52.644;4.734;2022-12-20T04:14:53;16.60;;;10.47;;
17488;SDS011;8861;52.644;4.734;2022-12-20T04:17:20;16.83;;;10.87;;
17488;SDS011;8861;52.644;4.734;2022-12-20T04:19:47;14.90;;;11.10;;
17488;SDS011;8861;52.644;4.734;2022-12-20T04:22:14;17.10;;;10.83;;
17488;SDS011;8861;52.644;4.734;2022-12-20T04:24:42;11.53;;;9.67;;
17488;SDS011;8861;52.644;4.734;2022-12-20T04:27:11;15.87;;;10.27;;
17488;SDS011;8861;52.644;4.734;2022-12-20T04:29:38;14.60;;;10.87;;
17488;SDS011;8861;52.644;4.734;2022-12-20T04:32:05;15.83;;;10.47;;
17488;SDS011;8861;52.644;4.734;2022-12-20T04:34:32;13.63;;;9.63;;
17488;SDS011;8861;52.644;4.734;2022-12-20T04:36:59;14.27;;;10.67;;
17488;SDS011;8861;52.644;4.734;2022-12-20T04:39:25;12.90;;;9.47;;
17488;SDS011;8861;52.644;4.734;2022-12-20T04:41:54;15.43;;;9.47;;
17488;SDS011;8861;52.644;4.734;2022-12-20T04:44:21;11.30;;;8.87;;
17488;SDS011;8861;52.644;4.734;2022-12-20T04:46:48;12.83;;;9.03;;
17488;SDS011;8861;52.644;4.734;2022-12-20T04:49:14;14.73;;;9.13;;
17488;SDS011;8861;52.644;4.734;2022-12-20T04:51:41;13.47;;;8.43;;
17488;SDS011;8861;52.644;4.734;2022-12-20T04:54:08;14.80;;;9.20;;
17488;SDS011;8861;52.644;4.734;2022-12-20T04:56:34;11.07;;;8.77;;
17488;SDS011;8861;52.644;4.734;2022-12-20T04:59:04;11.93;;;8.43;;
17488;SDS011;8861;52.644;4.734;2022-12-20T05:01:31;14.70;;;8.97;;
17488;SDS011;8861;52.644;4.734;2022-12-20T05:03:59;12.17;;;8.50;;
17488;SDS011;8861;52.644;4.734;2022-12-20T05:06:28;12.53;;;8.33;;
17488;SDS011;8861;52.644;4.734;2022-12-20T05:08:55;13.37;;;9.60;;
17488;SDS011;8861;52.644;4.734;2022-12-20T05:11:22;12.30;;;8.33;;
17488;SDS011;8861;52.644;4.734;2022-12-20T05:13:49;10.87;;;8.17;;
17488;SDS011;8861;52.644;4.734;2022-12-20T05:16:22;11.93;;;8.03;;
17488;SDS011;8861;52.644;4.734;2022-12-20T05:18:49;10.73;;;8.47;;
17488;SDS011;8861;52.644;4.734;2022-12-20T05:21:19;14.23;;;8.67;;
17488;SDS011;8861;52.644;4.734;2022-12-20T05:24:03;12.20;;;8.13;;
17488;SDS011;8861;52.644;4.734;2022-12-20T05:26:48;12.13;;;8.33;;
17488;SDS011;8861;52.644;4.734;2022-12-20T05:29:15;11.27;;;7.80;;
17488;SDS011;8861;52.644;4.734;2022-12-20T05:31:43;10.23;;;7.83;;
17488;SDS011;8861;52.644;4.734;2022-12-20T05:34:10;10.20;;;7.50;;
17488;SDS011;8861;52.644;4.734;2022-12-20T05:36:37;12.20;;;7.83;;
17488;SDS011;8861;52.644;4.734;2022-12-20T05:39:04;9.83;;;7.33;;
17488;SDS011;8861;52.644;4.734;2022-12-20T05:41:31;10.57;;;7.40;;
17488;SDS011;8861;52.644;4.734;2022-12-20T05:43:58;9.93;;;7.60;;
17488;SDS011;8861;52.644;4.734;2022-12-20T05:46:25;9.33;;;7.30;;
17488;SDS011;8861;52.644;4.734;2022-12-20T05:48:53;12.37;;;8.50;;
17488;SDS011;8861;52.644;4.734;2022-12-20T05:51:20;10.70;;;8.43;;
17488;SDS011;8861;52.644;4.734;2022-12-20T05:53:47;11.27;;;8.03;;
17488;SDS011;8861;52.644;4.734;2022-12-20T05:56:14;9.77;;;7.73;;
17488;SDS011;8861;52.644;4.734;2022-12-20T05:58:42;12.17;;;8.87;;
17488;SDS011;8861;52.644;4.734;2022-12-20T06:01:09;13.97;;;8.60;;
17488;SDS011;8861;52.644;4.734;2022-12-20T06:03:36;12.60;;;8.47;;
17488;SDS011;8861;52.644;4.734;2022-12-20T06:06:06;11.47;;;8.83;;
17488;SDS011;8861;52.644;4.734;2022-12-20T06:08:33;13.10;;;8.80;;
17488;SDS011;8861;52.644;4.734;2022-12-20T06:11:00;14.07;;;8.83;;
17488;SDS011;8861;52.644;4.734;2022-12-20T06:13:29;13.07;;;8.83;;
17488;SDS011;8861;52.644;4.734;2022-12-20T06:15:57;13.83;;;8.70;;
17488;SDS011;8861;52.644;4.734;2022-12-20T06:18:24;12.63;;;9.10;;
17488;SDS011;8861;52.644;4.734;2022-12-20T06:20:52;11.17;;;7.93;;
17488;SDS011;8861;52.644;4.734;2022-12-20T06:23:27;14.17;;;9.60;;
17488;SDS011;8861;52.644;4.734;2022-12-20T06:25:54;12.93;;;8.90;;
17488;SDS011;8861;52.644;4.734;2022-12-20T06:28:22;13.53;;;8.90;;
17488;SDS011;8861;52.644;4.734;2022-12-20T06:30:51;10.23;;;7.93;;
17488;SDS011;8861;52.644;4.734;2022-12-20T06:33:19;14.77;;;8.50;;
17488;SDS011;8861;52.644;4.734;2022-12-20T06:35:46;10.83;;;8.07;;
17488;SDS011;8861;52.644;4.734;2022-12-20T06:38:15;11.73;;;7.77;;
17488;SDS011;8861;52.644;4.734;2022-12-20T06:40:43;13.77;;;7.70;;
17488;SDS011;8861;52.644;4.734;2022-12-20T06:43:10;11.17;;;7.43;;
17488;SDS011;8861;52.644;4.734;2022-12-20T06:45:37;11.17;;;7.87;;
17488;SDS011;8861;52.644;4.734;2022-12-20T06:48:05;14.00;;;7.67;;
17488;SDS011;8861;52.644;4.734;2022-12-20T06:50:32;9.70;;;6.77;;
17488;SDS011;8861;52.644;4.734;2022-12-20T06:52:59;11.43;;;7.87;;
17488;SDS011;8861;52.644;4.734;2022-12-20T06:55:26;11.40;;;7.13;;
17488;SDS011;8861;52.644;4.734;2022-12-20T06:57:55;10.70;;;6.97;;
17488;SDS011;8861;52.644;4.734;2022-12-20T07:00:22;9.77;;;7.13;;
17488;SDS011;8861;52.644;4.734;2022-12-20T07:02:51;10.73;;;7.03;;
17488;SDS011;8861;52.644;4.734;2022-12-20T07:05:18;9.50;;;6.80;;
17488;SDS011;8861;52.644;4.734;2022-12-20T07:07:45;10.13;;;6.80;;
17488;SDS011;8861;52.644;4.734;2022-12-20T07:10:12;9.07;;;6.67;;
17488;SDS011;8861;52.644;4.734;2022-12-20T07:12:39;10.27;;;7.07;;
17488;SDS011;8861;52.644;4.734;2022-12-20T07:15:08;10.93;;;7.17;;
17488;SDS011;8861;52.644;4.734;2022-12-20T07:17:36;11.73;;;6.97;;
17488;SDS011;8861;52.644;4.734;2022-12-20T07:20:03;9.53;;;6.93;;
17488;SDS011;8861;52.644;4.734;2022-12-20T07:22:31;12.83;;;7.70;;
17488;SDS011;8861;52.644;4.734;2022-12-20T07:24:59;9.63;;;7.10;;
17488;SDS011;8861;52.644;4.734;2022-12-20T07:27:26;9.27;;;6.67;;
17488;SDS011;8861;52.644;4.734;2022-12-20T07:29:53;12.67;;;7.93;;
17488;SDS011;8861;52.644;4.734;2022-12-20T07:32:22;10.20;;;7.03;;
17488;SDS011;8861;52.644;4.734;2022-12-20T07:34:49;11.03;;;7.60;;
17488;SDS011;8861;52.644;4.734;2022-12-20T07:37:16;10.10;;;7.43;;
17488;SDS011;8861;52.644;4.734;2022-12-20T07:39:43;11.03;;;7.90;;
17488;SDS011;8861;52.644;4.734;2022-12-20T07:42:11;13.07;;;8.67;;
17488;SDS011;8861;52.644;4.734;2022-12-20T07:44:38;12.87;;;7.33;;
17488;SDS011;8861;52.644;4.734;2022-12-20T07:47:05;12.50;;;8.40;;
17488;SDS011;8861;52.644;4.734;2022-12-20T07:49:33;10.47;;;7.63;;
17488;SDS011;8861;52.644;4.734;2022-12-20T07:52:00;11.27;;;7.50;;
17488;SDS011;8861;52.644;4.734;2022-12-20T07:54:30;15.80;;;9.70;;
17488;SDS011;8861;52.644;4.734;2022-12-20T07:56:59;13.93;;;8.80;;
17488;SDS011;8861;52.644;4.734;2022-12-20T07:59:30;13.03;;;7.57;;
17488;SDS011;8861;52.644;4.734;2022-12-20T08:02:01;12.57;;;7.83;;
17488;SDS011;8861;52.644;4.734;2022-12-20T08:04:30;11.03;;;7.67;;
17488;SDS011;8861;52.644;4.734;2022-12-20T08:07:00;13.70;;;8.70;;
17488;SDS011;8861;52.644;4.734;2022-12-20T08:09:28;12.13;;;8.20;;
17488;SDS011;8861;52.644;4.734;2022-12-20T08:11:59;12.27;;;8.40;;
17488;SDS011;8861;52.644;4.734;2022-12-20T08:14:27;10.77;;;7.83;;
17488;SDS011;8861;52.644;4.734;2022-12-20T08:16:54;11.27;;;8.10;;
17488;SDS011;8861;52.644;4.734;2022-12-20T08:19:21;13.53;;;7.10;;
17488;SDS011;8861;52.644;4.734;2022-12-20T08:21:48;12.13;;;7.90;;
17488;SDS011;8861;52.644;4.734;2022-12-20T08:24:16;13.33;;;7.37;;
17488;SDS011;8861;52.644;4.734;2022-12-20T08:26:43;9.80;;;7.17;;
17488;SDS011;8861;52.644;4.734;2022-12-20T08:29:11;13.47;;;7.27;;
17488;SDS011;8861;52.644;4.734;2022-12-20T08:31:38;12.60;;;7.40;;
17488;SDS011;8861;52.644;4.734;2022-12-20T08:34:06;9.83;;;6.60;;
17488;SDS011;8861;52.644;4.734;2022-12-20T08:36:33;9.57;;;7.03;;
17488;SDS011;8861;52.644;4.734;2022-12-20T08:39:01;10.03;;;6.40;;
17488;SDS011;8861;52.644;4.734;2022-12-20T08:41:29;10.53;;;6.70;;
17488;SDS011;8861;52.644;4.734;2022-12-20T08:43:57;9.33;;;6.50;;
17488;SDS011;8861;52.644;4.734;2022-12-20T08:46:24;10.40;;;6.70;;
17488;SDS011;8861;52.644;4.734;2022-12-20T08:48:51;10.60;;;6.43;;
17488;SDS011;8861;52.644;4.734;2022-12-20T08:51:18;12.27;;;6.63;;
17488;SDS011;8861;52.644;4.734;2022-12-20T08:53:45;11.03;;;6.70;;
17488;SDS011;8861;52.644;4.734;2022-12-20T08:56:15;8.80;;;5.80;;
17488;SDS011;8861;52.644;4.734;2022-12-20T08:58:45;9.73;;;5.77;;
17488;SDS011;8861;52.644;4.734;2022-12-20T09:01:13;13.00;;;8.37;;
17488;SDS011;8861;52.644;4.734;2022-12-20T09:03:42;8.53;;;6.10;;
17488;SDS011;8861;52.644;4.734;2022-12-20T09:06:10;9.00;;;5.87;;
17488;SDS011;8861;52.644;4.734;2022-12-20T09:08:39;8.40;;;5.87;;
17488;SDS011;8861;52.644;4.734;2022-12-20T09:11:07;9.90;;;5.73;;
17488;SDS011;8861;52.644;4.734;2022-12-20T09:13:36;8.33;;;5.63;;
17488;SDS011;8861;52.644;4.734;2022-12-20T09:16:05;11.80;;;5.77;;
17488;SDS011;8861;52.644;4.734;2022-12-20T09:18:33;7.93;;;5.43;;
17488;SDS011;8861;52.644;4.734;2022-12-20T09:21:02;6.97;;;5.20;;
17488;SDS011;8861;52.644;4.734;2022-12-20T09:23:31;10.80;;;5.67;;
17488;SDS011;8861;52.644;4.734;2022-12-20T09:26:00;9.40;;;5.10;;
17488;SDS011;8861;52.644;4.734;2022-12-20T09:28:28;9.83;;;6.07;;
17488;SDS011;8861;52.644;4.734;2022-12-20T09:30:56;9.50;;;5.77;;
17488;SDS011;8861;52.644;4.734;2022-12-20T09:33:25;10.57;;;5.80;;
17488;SDS011;8861;52.644;4.734;2022-12-20T09:35:55;8.80;;;5.93;;
17488;SDS011;8861;52.644;4.734;2022-12-20T09:38:22;7.87;;;5.30;;
17488;SDS011;8861;52.644;4.734;2022-12-20T09:40:50;9.33;;;5.90;;
17488;SDS011;8861;52.644;4.734;2022-12-20T09:43:19;11.47;;;5.77;;
17488;SDS011;8861;52.644;4.734;2022-12-20T09:45:47;9.03;;;5.67;;
17488;SDS011;8861;52.644;4.734;2022-12-20T09:48:19;9.90;;;5.90;;
17488;SDS011;8861;52.644;4.734;2022-12-20T09:50:55;9.03;;;6.37;;
17488;SDS011;8861;52.644;4.734;2022-12-20T09:53:34;9.83;;;6.30;;
17488;SDS011;8861;52.644;4.734;2022-12-20T09:56:09;10.63;;;5.57;;
17488;SDS011;8861;52.644;4.734;2022-12-20T09:58:45;8.10;;;5.73;;
17488;SDS011;8861;52.644;4.734;2022-12-20T10:01:24;9.23;;;5.63;;
17488;SDS011;8861;52.644;4.734;2022-12-20T10:03:54;9.27;;;5.57;;
17488;SDS011;8861;52.644;4.734;2022-12-20T10:06:26;6.50;;;5.23;;
17488;SDS011;8861;52.644;4.734;2022-12-20T10:09:02;7.57;;;4.90;;
17488;SDS011;8861;52.644;4.734;2022-12-20T10:11:36;7.97;;;5.40;;
17488;SDS011;8861;52.644;4.734;2022-12-20T10:14:27;9.63;;;6.00;;
17488;SDS011;8861;52.644;4.734;2022-12-20T10:17:10;11.17;;;5.83;;
17488;SDS011;8861;52.644;4.734;2022-12-20T10:19:59;8.40;;;5.60;;
17488;SDS011;8861;52.644;4.734;2022-12-20T10:22:53;7.80;;;5.60;;
17488;SDS011;8861;52.644;4.734;2022-12-20T10:25:29;7.47;;;5.57;;
17488;SDS011;8861;52.644;4.734;2022-12-20T10:27:59;10.47;;;5.53;;
17488;SDS011;8861;52.644;4.734;2022-12-20T10:30:28;9.40;;;5.37;;
17488;SDS011;8861;52.644;4.734;2022-12-20T10:32:59;10.07;;;5.47;;
17488;SDS011;8861;52.644;4.734;2022-12-20T10:35:27;8.77;;;5.80;;
17488;SDS011;8861;52.644;4.734;2022-12-20T10:38:01;9.80;;;6.50;;
17488;SDS011;8861;52.644;4.734;2022-12-20T10:40:31;9.43;;;5.30;;
17488;SDS011;8861;52.644;4.734;2022-12-20T10:43:00;10.00;;;5.97;;
17488;SDS011;8861;52.644;4.734;2022-12-20T10:45:34;8.47;;;6.17;;
17488;SDS011;8861;52.644;4.734;2022-12-20T10:48:04;10.67;;;6.70;;
17488;SDS011;8861;52.644;4.734;2022-12-20T10:50:32;9.27;;;6.27;;
17488;SDS011;8861;52.644;4.734;2022-12-20T10:53:18;9.70;;;7.00;;
17488;SDS011;8861;52.644;4.734;2022-12-20T10:55:48;10.67;;;6.50;;
17488;SDS011;8861;52.644;4.734;2022-12-20T10:58:16;10.47;;;6.50;;
17488;SDS011;8861;52.644;4.734;2022-12-20T11:00:47;10.13;;;6.33;;
17488;SDS011;8861;52.644;4.734;2022-12-20T11:03:16;13.00;;;7.00;;
17488;SDS011;8861;52.644;4.734;2022-12-20T11:05:55;12.87;;;7.20;;
17488;SDS011;8861;52.644;4.734;2022-12-20T11:08:26;15.30;;;7.53;;
17488;SDS011;8861;52.644;4.734;2022-12-20T11:13:41;12.53;;;7.40;;
17488;SDS011;8861;52.644;4.734;2022-12-20T11:16:25;13.63;;;7.40;;
17488;SDS011;8861;52.644;4.734;2022-12-20T11:19:05;13.93;;;6.93;;
17488;SDS011;8861;52.644;4.734;2022-12-20T11:21:45;14.33;;;7.10;;
17488;SDS011;8861;52.644;4.734;2022-12-20T11:24:23;10.43;;;6.53;;
17488;SDS011;8861;52.644;4.734;2022-12-20T11:27:02;11.20;;;7.03;;
17488;SDS011;8861;52.644;4.734;2022-12-20T11:29:48;14.13;;;6.20;;
17488;SDS011;8861;52.644;4.734;2022-12-20T11:35:36;7.97;;;5.43;;
17488;SDS011;8861;52.644;4.734;2022-12-20T11:38:14;13.57;;;6.13;;
17488;SDS011;8861;52.644;4.734;2022-12-20T11:41:09;8.53;;;5.40;;
17488;SDS011;8861;52.644;4.734;2022-12-20T11:43:50;10.73;;;5.80;;
17488;SDS011;8861;52.644;4.734;2022-12-20T11:46:31;12.40;;;5.63;;
17488;SDS011;8861;52.644;4.734;2022-12-20T11:49:16;11.07;;;5.77;;
17488;SDS011;8861;52.644;4.734;2022-12-20T11:52:00;10.47;;;5.83;;
17488;SDS011;8861;52.644;4.734;2022-12-20T11:54:32;11.80;;;6.03;;
17488;SDS011;8861;52.644;4.734;2022-12-20T11:57:09;10.43;;;5.87;;
17488;SDS011;8861;52.644;4.734;2022-12-20T11:59:44;14.33;;;6.57;;
17488;SDS011;8861;52.644;4.734;2022-12-20T12:02:17;11.90;;;5.87;;
17488;SDS011;8861;52.644;4.734;2022-12-20T12:04:53;11.00;;;5.80;;
17488;SDS011;8861;52.644;4.734;2022-12-20T12:07:24;10.70;;;5.73;;
17488;SDS011;8861;52.644;4.734;2022-12-20T12:09:55;17.47;;;6.00;;
17488;SDS011;8861;52.644;4.734;2022-12-20T12:12:30;16.63;;;6.17;;
17488;SDS011;8861;52.644;4.734;2022-12-20T12:15:01;14.30;;;6.60;;
17488;SDS011;8861;52.644;4.734;2022-12-20T12:17:34;13.23;;;6.40;;
17488;SDS011;8861;52.644;4.734;2022-12-20T12:20:14;13.23;;;6.30;;
17488;SDS011;8861;52.644;4.734;2022-12-20T12:22:48;13.93;;;6.50;;
17488;SDS011;8861;52.644;4.734;2022-12-20T12:25:21;13.33;;;6.30;;
17488;SDS011;8861;52.644;4.734;2022-12-20T12:27:50;14.93;;;6.20;;
17488;SDS011;8861;52.644;4.734;2022-12-20T12:30:17;11.50;;;6.20;;
17488;SDS011;8861;52.644;4.734;2022-12-20T12:32:46;13.77;;;6.90;;
17488;SDS011;8861;52.644;4.734;2022-12-20T12:38:22;11.83;;;6.90;;
17488;SDS011;8861;52.644;4.734;2022-12-20T12:43:55;9.87;;;6.40;;
17488;SDS011;8861;52.644;4.734;2022-12-20T12:46:25;13.93;;;7.20;;
17488;SDS011;8861;52.644;4.734;2022-12-20T12:48:55;12.97;;;7.53;;
17488;SDS011;8861;52.644;4.734;2022-12-20T12:51:26;16.33;;;7.73;;
17488;SDS011;8861;52.644;4.734;2022-12-20T12:56:43;13.63;;;6.90;;
17488;SDS011;8861;52.644;4.734;2022-12-20T12:59:20;12.23;;;7.27;;
17488;SDS011;8861;52.644;4.734;2022-12-20T13:01:51;13.87;;;7.27;;
17488;SDS011;8861;52.644;4.734;2022-12-20T13:04:51;13.97;;;7.80;;
17488;SDS011;8861;52.644;4.734;2022-12-20T13:07:26;11.47;;;7.23;;
17488;SDS011;8861;52.644;4.734;2022-12-20T13:13:11;17.90;;;7.90;;
17488;SDS011;8861;52.644;4.734;2022-12-20T13:15:47;16.30;;;7.90;;
17488;SDS011;8861;52.644;4.734;2022-12-20T13:18:19;17.57;;;8.13;;
17488;SDS011;8861;52.644;4.734;2022-12-20T13:21:16;13.93;;;7.90;;
17488;SDS011;8861;52.644;4.734;2022-12-20T13:27:20;17.67;;;9.13;;
17488;SDS011;8861;52.644;4.734;2022-12-20T13:38:58;21.47;;;9.07;;
17488;SDS011;8861;52.644;4.734;2022-12-20T13:41:30;21.70;;;9.27;;
17488;SDS011;8861;52.644;4.734;2022-12-20T13:44:07;15.47;;;8.77;;
17488;SDS011;8861;52.644;4.734;2022-12-20T13:47:01;19.93;;;10.23;;
17488;SDS011;8861;52.644;4.734;2022-12-20T13:49:35;17.53;;;9.77;;
17488;SDS011;8861;52.644;4.734;2022-12-20T13:52:22;16.83;;;9.60;;
17488;SDS011;8861;52.644;4.734;2022-12-20T13:54:53;20.77;;;10.50;;
17488;SDS011;8861;52.644;4.734;2022-12-20T13:57:25;17.70;;;9.03;;
17488;SDS011;8861;52.644;4.734;2022-12-20T13:59:55;18.50;;;10.00;;
17488;SDS011;8861;52.644;4.734;2022-12-20T14:02:26;21.90;;;11.00;;
17488;SDS011;8861;52.644;4.734;2022-12-20T14:05:00;21.97;;;10.87;;
17488;SDS011;8861;52.644;4.734;2022-12-20T14:07:30;20.23;;;10.03;;
17488;SDS011;8861;52.644;4.734;2022-12-20T14:09:58;23.53;;;10.73;;
17488;SDS011;8861;52.644;4.734;2022-12-20T14:12:28;19.80;;;10.53;;
17488;SDS011;8861;52.644;4.734;2022-12-20T14:14:55;20.93;;;11.13;;
17488;SDS011;8861;52.644;4.734;2022-12-20T14:17:23;19.87;;;10.60;;
17488;SDS011;8861;52.644;4.734;2022-12-20T14:20:04;21.13;;;10.57;;
17488;SDS011;8861;52.644;4.734;2022-12-20T14:22:33;15.77;;;10.13;;
17488;SDS011;8861;52.644;4.734;2022-12-20T14:25:00;19.80;;;12.07;;
17488;SDS011;8861;52.644;4.734;2022-12-20T14:27:32;20.47;;;11.10;;
17488;SDS011;8861;52.644;4.734;2022-12-20T14:30:01;22.70;;;12.17;;
17488;SDS011;8861;52.644;4.734;2022-12-20T14:32:31;17.13;;;10.93;;
17488;SDS011;8861;52.644;4.734;2022-12-20T14:34:58;21.17;;;11.10;;
17488;SDS011;8861;52.644;4.734;2022-12-20T14:37:28;20.07;;;10.87;;
17488;SDS011;8861;52.644;4.734;2022-12-20T14:39:58;21.33;;;11.13;;
17488;SDS011;8861;52.644;4.734;2022-12-20T14:42:28;22.13;;;11.83;;
17488;SDS011;8861;52.644;4.734;2022-12-20T14:45:04;21.77;;;11.23;;
17488;SDS011;8861;52.644;4.734;2022-12-20T14:47:46;20.17;;;11.30;;
17488;SDS011;8861;52.644;4.734;2022-12-20T14:50:16;28.47;;;12.20;;
17488;SDS011;8861;52.644;4.734;2022-12-20T14:52:47;22.87;;;12.17;;
17488;SDS011;8861;52.644;4.734;2022-12-20T14:55:15;23.53;;;12.90;;
17488;SDS011;8861;52.644;4.734;2022-12-20T14:57:45;23.47;;;12.63;;
17488;SDS011;8861;52.644;4.734;2022-12-20T15:00:19;24.17;;;12.60;;
17488;SDS011;8861;52.644;4.734;2022-12-20T15:02:55;23.40;;;12.07;;
17488;SDS011;8861;52.644;4.734;2022-12-20T15:05:39;24.63;;;12.90;;
17488;SDS011;8861;52.644;4.734;2022-12-20T15:08:18;25.50;;;13.67;;
17488;SDS011;8861;52.644;4.734;2022-12-20T15:10:49;22.40;;;12.80;;
17488;SDS011;8861;52.644;4.734;2022-12-20T15:13:23;21.23;;;12.80;;
17488;SDS011;8861;52.644;4.734;2022-12-20T15:15:53;19.93;;;12.27;;
17488;SDS011;8861;52.644;4.734;2022-12-20T15:18:20;24.40;;;12.60;;
17488;SDS011;8861;52.644;4.734;2022-12-20T15:20:48;25.93;;;13.00;;
17488;SDS011;8861;52.644;4.734;2022-12-20T15:23:33;19.00;;;12.23;;
17488;SDS011;8861;52.644;4.734;2022-12-20T15:26:00;23.10;;;12.30;;
17488;SDS011;8861;52.644;4.734;2022-12-20T15:28:27;21.10;;;13.50;;
17488;SDS011;8861;52.644;4.734;2022-12-20T15:30:54;23.73;;;12.43;;
17488;SDS011;8861;52.644;4.734;2022-12-20T15:33:22;25.53;;;13.33;;
17488;SDS011;8861;52.644;4.734;2022-12-20T15:35:50;23.20;;;13.60;;
17488;SDS011;8861;52.644;4.734;2022-12-20T15:38:19;24.33;;;13.63;;
17488;SDS011;8861;52.644;4.734;2022-12-20T15:40:49;21.90;;;11.93;;
17488;SDS011;8861;52.644;4.734;2022-12-20T15:43:19;27.53;;;13.57;;
17488;SDS011;8861;52.644;4.734;2022-12-20T15:45:48;20.63;;;12.50;;